createdAt,value
2023-05-20T00:01:52.672Z,24.00
2023-05-20T00:04:56.042Z,22.00
2023-05-20T00:08:00.894Z,24.50
2023-05-20T00:11:04.620Z,24.20
2023-05-20T00:14:07.920Z,21.80
2023-05-20T00:17:11.342Z,21.40
2023-05-20T00:20:14.769Z,19.00
2023-05-20T00:23:19.410Z,20.80
2023-05-20T00:26:22.689Z,19.00
2023-05-20T00:29:31.053Z,22.40
2023-05-20T00:32:34.660Z,21.75
2023-05-20T00:35:37.899Z,23.20
2023-05-20T00:38:42.513Z,22.00
2023-05-20T00:41:46.213Z,23.00
2023-05-20T00:44:50.681Z,22.00
2023-05-20T00:47:57.317Z,24.60
2023-05-20T00:51:02.229Z,21.50
2023-05-20T00:54:07.104Z,27.80
2023-05-20T00:57:11.112Z,23.80
2023-05-20T01:00:15.991Z,25.60
2023-05-20T01:03:19.583Z,22.25
2023-05-20T01:06:23.000Z,24.60
2023-05-20T01:09:27.879Z,24.80
2023-05-20T01:12:37.587Z,22.40
2023-05-20T01:15:42.165Z,23.00
2023-05-20T01:18:48.757Z,25.75
2023-05-20T01:21:55.082Z,26.00
2023-05-20T01:24:59.716Z,27.20
2023-05-20T01:28:03.518Z,23.00
2023-05-20T01:31:12.943Z,26.40
2023-05-20T01:34:17.168Z,23.60
2023-05-20T01:37:21.186Z,22.00
2023-05-20T01:40:27.916Z,26.40
2023-05-20T01:43:32.602Z,24.00
2023-05-20T01:46:36.125Z,20.00
2023-05-20T01:49:39.492Z,25.00
2023-05-20T01:52:42.772Z,21.60
2023-05-20T01:55:47.440Z,22.00
2023-05-20T01:58:50.631Z,22.40
2023-05-20T02:01:53.966Z,22.50
2023-05-20T02:04:57.303Z,23.00
2023-05-20T02:08:01.246Z,23.40
2023-05-20T02:11:05.957Z,20.20
2023-05-20T02:14:09.423Z,25.00
2023-05-20T02:17:12.882Z,20.00
2023-05-20T02:20:16.489Z,22.60
2023-05-20T02:23:19.836Z,23.40
2023-05-20T02:26:25.424Z,24.75
2023-05-20T02:29:28.674Z,22.00
2023-05-20T02:32:33.715Z,23.00
2023-05-20T02:35:37.119Z,23.00
2023-05-20T02:38:41.348Z,23.00
2023-05-20T02:41:48.559Z,21.00
2023-05-20T02:44:53.442Z,20.75
2023-05-20T02:47:56.792Z,23.00
2023-05-20T02:51:00.729Z,22.20
2023-05-20T02:54:04.065Z,23.75
2023-05-20T02:57:08.880Z,21.00
2023-05-20T03:00:13.713Z,24.80
2023-05-20T03:03:17.246Z,22.00
2023-05-20T03:06:20.602Z,25.00
2023-05-20T03:09:23.804Z,23.60
2023-05-20T03:12:28.579Z,22.00
2023-05-20T03:15:32.181Z,22.80
2023-05-20T03:18:35.737Z,23.00
2023-05-20T03:21:39.106Z,23.00
2023-05-20T03:24:43.143Z,23.60
2023-05-20T03:27:51.488Z,21.00
2023-05-20T03:30:54.933Z,21.75
2023-05-20T03:33:58.244Z,22.60
2023-05-20T03:37:01.689Z,25.50
2023-05-20T03:40:07.194Z,20.20
2023-05-20T03:43:13.085Z,22.00
2023-05-20T03:46:16.456Z,21.40
2023-05-20T03:49:19.860Z,22.80
2023-05-20T03:52:23.566Z,19.00
2023-05-20T03:55:27.970Z,22.00
2023-05-20T03:58:32.932Z,21.20
2023-05-20T04:01:37.415Z,22.60
2023-05-20T04:04:43.143Z,21.40
2023-05-20T04:07:46.579Z,25.00
2023-05-20T04:10:51.019Z,23.00
2023-05-20T04:13:55.883Z,23.25
2023-05-20T04:17:00.512Z,23.00
2023-05-20T04:20:06.061Z,21.60
2023-05-20T04:23:10.330Z,21.20
2023-05-20T04:26:14.687Z,19.25
2023-05-20T04:29:20.108Z,24.00
2023-05-20T04:32:23.834Z,21.40
2023-05-20T04:35:27.429Z,22.00
2023-05-20T04:38:34.105Z,20.00
2023-05-20T04:41:38.212Z,21.80
2023-05-20T04:44:42.994Z,20.00
2023-05-20T04:47:46.346Z,19.00
2023-05-20T04:50:52.178Z,20.60
2023-05-20T04:53:55.518Z,19.20
2023-05-20T04:56:59.001Z,21.40
2023-05-20T05:00:07.559Z,26.00
2023-05-20T05:03:12.536Z,22.00
2023-05-20T05:06:15.855Z,21.00
2023-05-20T05:09:19.281Z,21.00
2023-05-20T05:12:23.453Z,22.80
2023-05-20T05:15:28.657Z,19.50
2023-05-20T05:18:32.343Z,22.20
2023-05-20T05:21:36.325Z,23.00
2023-05-20T05:24:40.469Z,23.00
2023-05-20T05:27:44.707Z,28.60
2023-05-20T05:30:49.429Z,24.60
2023-05-20T05:33:52.710Z,22.00
2023-05-20T05:36:56.581Z,20.40
2023-05-20T05:39:59.884Z,24.00
2023-05-20T05:43:03.281Z,21.75
2023-05-20T05:46:09.744Z,21.00
2023-05-20T05:49:13.961Z,21.20
2023-05-20T05:52:17.715Z,22.00
2023-05-20T05:55:21.023Z,18.75
2023-05-20T05:58:24.346Z,23.50
2023-05-20T06:01:29.165Z,24.00
2023-05-20T06:04:32.481Z,21.50
2023-05-20T06:07:35.837Z,25.00
2023-05-20T06:10:39.095Z,22.00
2023-05-20T06:13:42.440Z,20.60
2023-05-20T06:16:47.507Z,23.20
2023-05-20T06:19:51.096Z,19.50
2023-05-20T06:22:54.433Z,21.00
2023-05-20T06:26:00.831Z,25.40
2023-05-20T06:29:05.212Z,22.60
2023-05-20T06:32:10.188Z,22.00
2023-05-20T06:35:14.158Z,23.25
2023-05-20T06:38:17.677Z,22.00
2023-05-20T06:41:22.491Z,21.00
2023-05-20T06:44:27.515Z,19.40
2023-05-20T06:47:55.424Z,19.80
2023-05-20T06:50:58.760Z,22.25
2023-05-20T06:54:02.732Z,20.33
2023-05-20T06:57:09.298Z,25.00
2023-05-20T07:00:14.847Z,23.00
2023-05-20T07:03:20.273Z,22.00
2023-05-20T07:06:24.546Z,21.40
2023-05-20T07:09:28.219Z,23.40
2023-05-20T07:12:31.727Z,24.40
2023-05-20T07:15:35.571Z,22.00
2023-05-20T07:18:41.930Z,23.40
2023-05-20T07:21:50.386Z,19.00
2023-05-20T07:25:21.591Z,20.75
2023-05-20T07:28:25.525Z,22.00
2023-05-20T07:31:28.896Z,25.40
2023-05-20T07:34:34.070Z,22.00
2023-05-20T07:37:37.369Z,25.00
2023-05-20T07:40:42.751Z,20.00
2023-05-20T07:43:47.349Z,22.00
2023-05-20T07:46:50.628Z,20.25
2023-05-20T07:49:57.582Z,22.40
2023-05-20T07:53:01.235Z,17.25
2023-05-20T07:56:07.045Z,19.00
2023-05-20T07:59:10.474Z,22.60
2023-05-20T08:02:18.876Z,20.40
2023-05-20T08:05:24.680Z,23.40
2023-05-20T08:08:30.622Z,20.80
2023-05-20T08:11:39.760Z,21.00
2023-05-20T08:14:43.649Z,22.00
2023-05-20T08:17:47.139Z,18.80
2023-05-20T08:20:52.110Z,21.00
2023-05-20T08:23:56.904Z,19.00
2023-05-20T08:27:00.833Z,20.00
2023-05-20T08:30:04.347Z,22.50
2023-05-20T08:33:08.295Z,21.50
2023-05-20T08:36:13.115Z,19.75
2023-05-20T08:39:16.620Z,23.00
2023-05-20T08:42:23.850Z,21.00
2023-05-20T08:45:31.053Z,19.00
2023-05-20T08:48:38.382Z,20.40
2023-05-20T08:51:44.079Z,21.80
2023-05-20T08:54:50.762Z,22.00
2023-05-20T08:57:54.632Z,22.50
2023-05-20T09:00:58.992Z,21.20
2023-05-20T09:04:02.859Z,20.00
2023-05-20T09:07:07.928Z,24.00
2023-05-20T09:10:11.853Z,19.60
2023-05-20T09:13:15.113Z,24.00
2023-05-20T09:16:18.460Z,24.00
2023-05-20T09:19:24.183Z,25.00
2023-05-20T09:22:30.313Z,24.50
2023-05-20T09:25:34.418Z,22.50
2023-05-20T09:28:39.641Z,23.80
2023-05-20T09:31:43.058Z,27.25
2023-05-20T09:34:48.198Z,24.80
2023-05-20T09:37:56.637Z,27.20
2023-05-20T09:41:03.184Z,28.20
2023-05-20T09:44:06.974Z,24.50
2023-05-20T09:47:10.899Z,25.75
2023-05-20T09:50:15.447Z,27.40
2023-05-20T09:53:21.096Z,29.00
2023-05-20T09:56:26.622Z,24.75
2023-05-20T09:59:32.768Z,25.20
2023-05-20T10:02:37.205Z,29.00
2023-05-20T10:05:44.913Z,27.60
2023-05-20T10:09:06.744Z,29.00
2023-05-20T10:12:28.408Z,25.00
2023-05-20T10:15:42.746Z,24.50
2023-05-20T10:18:56.458Z,29.60
2023-05-20T10:22:02.151Z,26.80
2023-05-20T10:25:09.021Z,27.50
2023-05-20T10:28:12.464Z,26.00
2023-05-20T10:31:19.955Z,29.67
2023-05-20T10:34:24.712Z,30.00
2023-05-20T10:37:31.766Z,29.20
2023-05-20T10:40:37.263Z,29.00
2023-05-20T10:43:40.583Z,25.00
2023-05-20T10:49:52.006Z,28.80
2023-05-20T10:52:55.311Z,29.00
2023-05-20T10:55:59.908Z,27.60
2023-05-20T10:59:04.090Z,25.60
2023-05-20T11:02:07.663Z,26.00
2023-05-20T11:05:13.040Z,26.40
2023-05-20T11:08:27.626Z,28.00
2023-05-20T11:11:33.615Z,27.60
2023-05-20T11:14:36.968Z,25.00
2023-05-20T11:17:40.291Z,25.75
2023-05-20T11:20:43.992Z,25.25
2023-05-20T11:23:47.423Z,25.40
2023-05-20T11:26:52.743Z,25.00
2023-05-20T11:29:56.313Z,25.40
2023-05-20T11:33:01.179Z,25.60
2023-05-20T11:36:08.686Z,24.60
2023-05-20T11:39:16.063Z,23.20
2023-05-20T11:42:20.963Z,25.80
2023-05-20T11:45:24.579Z,29.80
2023-05-20T11:48:28.536Z,27.25
2023-05-20T11:51:31.890Z,24.00
2023-05-20T11:54:37.231Z,27.00
2023-05-20T11:57:42.059Z,26.00
2023-05-20T12:00:51.654Z,25.00
2023-05-20T12:03:58.316Z,25.00
2023-05-20T12:07:02.044Z,28.00
2023-05-20T12:10:05.949Z,64.00
2023-05-20T12:13:11.565Z,29.20
2023-05-20T12:16:15.128Z,26.80
2023-05-20T12:19:18.479Z,28.50
2023-05-20T12:22:21.802Z,28.00
2023-05-20T12:25:25.298Z,28.75
2023-05-20T12:28:30.040Z,31.00
2023-05-20T12:31:34.872Z,30.00
2023-05-20T12:34:39.147Z,28.50
2023-05-20T12:37:43.385Z,27.40
2023-05-20T12:40:46.934Z,29.00
2023-05-20T12:43:51.569Z,26.00
2023-05-20T12:46:56.097Z,27.80
2023-05-20T12:50:00.153Z,26.00
2023-05-20T12:53:03.502Z,29.00
2023-05-20T12:56:08.030Z,27.00
2023-05-20T12:59:12.759Z,25.00
2023-05-20T13:02:16.159Z,27.00
2023-05-20T13:05:20.203Z,25.00
2023-05-20T13:08:23.492Z,26.80
2023-05-20T13:11:26.789Z,24.20
2023-05-20T13:14:32.006Z,23.00
2023-05-20T13:17:35.507Z,20.00
2023-05-20T13:20:39.065Z,25.60
2023-05-20T13:23:46.774Z,24.00
2023-05-20T13:26:51.015Z,20.33
2023-05-20T13:29:55.915Z,24.00
2023-05-20T13:32:59.583Z,23.00
2023-05-20T13:36:02.932Z,24.00
2023-05-20T13:39:06.607Z,23.50
2023-05-20T13:42:10.028Z,20.00
2023-05-20T13:45:15.101Z,22.00
2023-05-20T13:48:18.442Z,21.00
2023-05-20T13:51:21.771Z,22.20
2023-05-20T13:54:26.348Z,21.80
2023-05-20T13:57:29.676Z,22.40
2023-05-20T14:00:34.453Z,23.50
2023-05-20T14:03:40.063Z,22.00
2023-05-20T14:06:43.428Z,22.60
2023-05-20T14:09:46.693Z,18.75
2023-05-20T14:12:50.192Z,22.20
2023-05-20T14:15:55.781Z,23.00
2023-05-20T14:18:59.168Z,22.00
2023-05-20T14:22:03.376Z,23.00
2023-05-20T14:25:07.680Z,21.00
2023-05-20T14:28:11.052Z,22.50
2023-05-20T14:31:16.042Z,18.75
2023-05-20T14:34:19.349Z,22.00
2023-05-20T14:37:23.225Z,20.00
2023-05-20T14:40:26.632Z,19.00
2023-05-20T14:43:32.160Z,19.60
2023-05-20T14:46:36.938Z,16.00
2023-05-20T14:49:41.671Z,18.00
2023-05-20T14:52:49.194Z,19.20
2023-05-20T14:55:52.460Z,20.00
2023-05-20T14:58:55.806Z,19.75
2023-05-20T15:02:00.665Z,20.00
2023-05-20T15:05:04.364Z,19.00
2023-05-20T15:08:07.616Z,19.00
2023-05-20T15:11:11.282Z,18.00
2023-05-20T15:14:14.800Z,21.00
2023-05-20T15:17:20.101Z,19.00
2023-05-20T15:20:23.546Z,19.60
2023-05-20T15:23:27.029Z,19.60
2023-05-20T15:26:32.277Z,19.40
2023-05-20T15:29:35.619Z,19.00
2023-05-20T15:32:41.376Z,17.00
2023-05-20T15:35:44.995Z,18.00
2023-05-20T15:38:48.325Z,19.20
2023-05-20T15:41:52.432Z,17.00
2023-05-20T15:44:56.077Z,19.00
2023-05-20T15:48:01.131Z,17.00
2023-05-20T15:51:05.619Z,18.60
2023-05-20T15:54:09.444Z,18.00
2023-05-20T15:57:12.651Z,18.25
2023-05-20T16:00:19.426Z,15.00
2023-05-20T16:03:24.112Z,19.40
2023-05-20T16:06:27.485Z,19.00
2023-05-20T16:09:31.176Z,16.00
2023-05-20T16:12:34.851Z,17.40
2023-05-20T16:15:38.697Z,17.00
2023-05-20T16:18:43.533Z,14.40
2023-05-20T16:21:46.862Z,16.00
2023-05-20T16:24:50.197Z,15.00
2023-05-20T16:27:53.511Z,17.00
2023-05-20T16:30:58.250Z,17.00
2023-05-20T16:34:04.752Z,13.60
2023-05-20T16:37:08.049Z,14.00
2023-05-20T16:40:11.862Z,16.00
2023-05-20T16:43:15.515Z,15.00
2023-05-20T16:46:19.742Z,17.00
2023-05-20T16:49:24.839Z,15.50
2023-05-20T16:52:28.119Z,14.00
2023-05-20T16:55:31.774Z,14.00
2023-05-20T16:58:35.430Z,16.00
2023-05-20T17:01:39.312Z,12.00
2023-05-20T17:04:44.394Z,14.50
2023-05-20T17:07:49.012Z,15.00
2023-05-20T17:10:54.358Z,14.50
2023-05-20T17:13:58.132Z,13.00
2023-05-20T17:17:01.590Z,16.00
2023-05-20T17:20:07.803Z,15.00
2023-05-20T17:23:11.102Z,15.00
2023-05-20T17:26:14.877Z,15.00
2023-05-20T17:29:18.079Z,19.00
2023-05-20T17:32:21.540Z,18.00
2023-05-20T17:35:26.682Z,15.00
2023-05-20T17:38:30.136Z,18.00
2023-05-20T17:41:33.359Z,18.80
2023-05-20T17:44:36.994Z,18.40
2023-05-20T17:47:40.597Z,15.60
2023-05-20T17:50:45.253Z,19.00
2023-05-20T17:53:48.549Z,17.00
2023-05-20T17:56:52.306Z,16.00
2023-05-20T17:59:55.646Z,14.33
2023-05-20T18:02:59.473Z,16.00
2023-05-20T18:06:06.094Z,17.00
2023-05-20T18:09:14.349Z,16.80
2023-05-20T18:12:17.622Z,12.80
2023-05-20T18:15:21.937Z,15.80
2023-05-20T18:18:25.204Z,13.60
2023-05-20T18:21:30.033Z,14.00
2023-05-20T18:24:33.284Z,17.00
2023-05-20T18:27:36.679Z,17.00
2023-05-20T18:30:42.714Z,14.20
2023-05-20T18:33:49.070Z,16.00
2023-05-20T18:36:55.294Z,15.00
2023-05-20T18:39:59.797Z,14.20
2023-05-20T18:43:03.095Z,17.60
2023-05-20T18:46:06.588Z,17.00
2023-05-20T18:49:11.202Z,16.80
2023-05-20T18:52:15.899Z,16.40
2023-05-20T18:55:19.270Z,19.00
2023-05-20T18:58:22.791Z,18.00
2023-05-20T19:01:27.199Z,18.00
2023-05-20T19:04:30.835Z,17.25
2023-05-20T19:07:36.013Z,18.00
2023-05-20T19:10:39.290Z,20.00
2023-05-20T19:13:42.558Z,19.00
2023-05-20T19:16:46.626Z,19.75
2023-05-20T19:19:50.030Z,20.00
2023-05-20T19:22:54.656Z,17.50
2023-05-20T19:25:58.385Z,20.00
2023-05-20T19:29:01.906Z,20.50
2023-05-20T19:32:05.586Z,17.00
2023-05-20T19:35:09.636Z,19.40
2023-05-20T19:38:14.479Z,18.00
2023-05-20T19:41:18.206Z,20.50
2023-05-20T19:44:21.465Z,19.00
2023-05-20T19:47:24.918Z,21.00
2023-05-20T19:50:28.203Z,20.75
2023-05-20T19:53:32.898Z,21.80
2023-05-20T19:56:36.196Z,22.00
2023-05-20T19:59:39.704Z,17.00
2023-05-20T20:02:42.997Z,18.00
2023-05-20T20:05:46.374Z,18.00
2023-05-20T20:08:51.025Z,16.00
2023-05-20T20:11:54.347Z,16.60
2023-05-20T20:14:57.600Z,17.60
2023-05-20T20:18:03.182Z,17.00
2023-05-20T20:21:09.291Z,17.50
2023-05-20T20:24:14.015Z,15.75
2023-05-20T20:27:24.117Z,19.20
2023-05-20T20:30:30.883Z,17.00
2023-05-20T20:33:37.196Z,18.00
2023-05-20T20:36:42.811Z,20.60
2023-05-20T20:39:50.552Z,19.00
2023-05-20T20:42:54.753Z,17.60
2023-05-20T20:46:00.165Z,18.80
2023-05-20T20:49:03.560Z,20.00
2023-05-20T20:52:07.706Z,19.00
2023-05-20T20:55:12.634Z,22.00
2023-05-20T20:58:15.840Z,19.25
2023-05-20T21:01:19.459Z,21.00
2023-05-20T21:04:22.863Z,20.60
2023-05-20T21:07:26.164Z,21.40
2023-05-20T21:10:30.981Z,22.00
2023-05-20T21:13:34.223Z,22.50
2023-05-20T21:16:37.606Z,22.00
2023-05-20T21:19:40.962Z,20.60
2023-05-20T21:22:44.664Z,21.20
2023-05-20T21:25:49.983Z,25.20
2023-05-20T21:28:53.894Z,21.00
2023-05-20T21:31:57.121Z,19.50
2023-05-20T21:35:00.482Z,19.00
2023-05-20T21:38:03.698Z,23.00
2023-05-20T21:41:08.429Z,21.00
2023-05-20T21:44:11.724Z,21.50
2023-05-20T21:47:15.375Z,24.20
2023-05-20T21:50:18.638Z,21.00
2023-05-20T21:53:21.914Z,23.00
2023-05-20T21:56:26.601Z,21.40
2023-05-20T21:59:29.904Z,19.00
2023-05-20T22:02:33.286Z,20.00
2023-05-20T22:05:37.383Z,20.50
2023-05-20T22:08:40.906Z,21.00
2023-05-20T22:11:48.054Z,21.00
2023-05-20T22:14:51.268Z,21.40
2023-05-20T22:17:54.922Z,24.00
2023-05-20T22:20:59.371Z,29.00
2023-05-20T22:24:03.181Z,26.00
2023-05-20T22:27:07.865Z,25.75
2023-05-20T22:30:12.306Z,24.00
2023-05-20T22:33:15.814Z,23.00
2023-05-20T22:36:19.075Z,26.40
2023-05-20T22:39:22.691Z,22.00
2023-05-20T22:42:27.293Z,23.40
2023-05-20T22:45:30.668Z,23.40
2023-05-20T22:48:33.925Z,19.60
2023-05-20T22:51:38.706Z,24.00
2023-05-20T22:54:42.542Z,23.60
2023-05-20T22:57:47.101Z,21.00
2023-05-20T23:00:50.300Z,20.60
2023-05-20T23:03:53.919Z,24.00
2023-05-20T23:06:59.268Z,23.00
2023-05-20T23:10:02.788Z,22.00
2023-05-20T23:13:07.377Z,22.00
2023-05-20T23:16:10.670Z,24.50
2023-05-20T23:19:14.005Z,25.40
2023-05-20T23:22:17.454Z,21.00
2023-05-20T23:25:20.836Z,23.00
2023-05-20T23:28:25.502Z,22.00
2023-05-20T23:31:30.161Z,22.50
2023-05-20T23:34:34.111Z,26.00
2023-05-20T23:37:37.695Z,23.00
2023-05-20T23:40:41.026Z,21.80
2023-05-20T23:43:45.704Z,26.00
2023-05-20T23:46:49.721Z,23.33
2023-05-20T23:49:55.988Z,21.00
2023-05-20T23:52:59.842Z,23.00
2023-05-20T23:56:03.109Z,25.00
2023-05-20T23:59:07.998Z,20.20
